createdAt,value
2022-11-02T00:00:28.028Z,79.94
2022-11-02T00:02:55.156Z,78.47
2022-11-02T00:05:25.159Z,77.99
2022-11-02T00:07:52.683Z,78.31
2022-11-02T00:10:20.258Z,79.07
2022-11-02T00:12:47.602Z,77.88
2022-11-02T00:15:14.908Z,79.39
2022-11-02T00:17:43.248Z,78.51
2022-11-02T00:20:11.120Z,77.54
2022-11-02T00:22:38.257Z,79.13
2022-11-02T00:25:07.059Z,77.63
2022-11-02T00:27:35.769Z,77.26
2022-11-02T00:30:02.755Z,77.79
2022-11-02T00:32:30.079Z,79.88
2022-11-02T00:34:57.159Z,79.39
2022-11-02T00:37:24.068Z,77.01
2022-11-02T00:39:51.068Z,77.74
2022-11-02T00:42:17.918Z,77.49
2022-11-02T00:44:44.947Z,78.30
2022-11-02T00:47:13.144Z,77.80
2022-11-02T00:49:40.046Z,78.46
2022-11-02T00:52:07.086Z,79.58
2022-11-02T00:54:33.875Z,77.76
2022-11-02T00:59:28.418Z,76.53
2022-11-02T01:01:55.343Z,76.47
2022-11-02T01:04:22.267Z,76.62
2022-11-02T01:06:49.546Z,77.35
2022-11-02T01:09:16.819Z,77.14
2022-11-02T01:11:43.989Z,77.86
2022-11-02T01:14:11.215Z,77.16
2022-11-02T01:16:39.298Z,75.82
2022-11-02T01:19:06.261Z,76.42
2022-11-02T01:21:33.157Z,77.02
2022-11-02T01:24:00.085Z,76.78
2022-11-02T01:26:26.970Z,77.06
2022-11-02T01:28:54.606Z,76.28
2022-11-02T01:31:21.638Z,76.95
2022-11-02T01:33:48.558Z,77.10
2022-11-02T01:36:17.161Z,77.03
2022-11-02T01:38:44.241Z,77.49
2022-11-02T01:41:12.520Z,78.27
2022-11-02T01:43:42.478Z,77.49
2022-11-02T01:46:13.034Z,79.27
2022-11-02T01:48:40.200Z,79.72
2022-11-02T01:51:10.428Z,78.26
2022-11-02T01:53:40.251Z,78.30
2022-11-02T01:56:07.919Z,77.34
2022-11-02T01:58:35.548Z,77.33
2022-11-02T02:01:02.707Z,77.76
2022-11-02T02:03:30.870Z,78.12
2022-11-02T02:06:01.158Z,79.34
2022-11-02T02:08:28.208Z,78.93
2022-11-02T02:10:56.618Z,79.57
2022-11-02T02:13:24.288Z,81.07
2022-11-02T02:16:03.378Z,80.39
2022-11-02T02:18:35.347Z,80.20
2022-11-02T02:21:11.598Z,79.90
2022-11-02T02:23:52.349Z,80.05
2022-11-02T02:26:28.622Z,80.39
2022-11-02T02:28:56.840Z,80.76
2022-11-02T02:31:24.976Z,81.25
2022-11-02T02:34:01.921Z,80.54
2022-11-02T02:36:31.458Z,80.94
2022-11-02T02:38:58.468Z,81.39
2022-11-02T02:41:32.298Z,81.96
2022-11-02T02:44:00.649Z,81.47
2022-11-02T02:46:27.651Z,80.86
2022-11-02T02:48:56.618Z,81.13
2022-11-02T02:51:27.786Z,81.68
2022-11-02T02:53:59.911Z,82.65
2022-11-02T02:56:28.680Z,82.09
2022-11-02T02:58:59.048Z,81.39
2022-11-02T03:01:26.861Z,82.12
2022-11-02T03:03:53.752Z,81.31
2022-11-02T03:06:25.159Z,80.29
2022-11-02T03:08:58.419Z,81.01
2022-11-02T03:11:28.660Z,81.67
2022-11-02T03:13:55.783Z,82.02
2022-11-02T03:16:31.718Z,81.82
2022-11-02T03:19:07.711Z,82.70
2022-11-02T03:21:38.916Z,82.84
2022-11-02T03:24:16.828Z,81.99
2022-11-02T03:26:47.707Z,81.70
2022-11-02T03:29:19.058Z,81.83
2022-11-02T03:31:49.324Z,81.32
2022-11-02T03:34:16.416Z,81.70
2022-11-02T03:36:52.728Z,82.06
2022-11-02T03:39:22.602Z,82.05
2022-11-02T03:41:52.068Z,81.99
2022-11-02T03:44:22.001Z,81.22
2022-11-02T03:46:50.552Z,80.75
2022-11-02T03:49:18.589Z,81.18
2022-11-02T03:51:46.611Z,81.66
2022-11-02T03:54:22.681Z,81.73
2022-11-02T03:56:53.238Z,81.35
2022-11-02T03:59:20.205Z,80.26
2022-11-02T04:01:49.482Z,80.70
2022-11-02T04:04:17.028Z,80.46
2022-11-02T04:06:45.140Z,80.74
2022-11-02T04:09:12.264Z,81.66
2022-11-02T04:11:48.499Z,81.08
2022-11-02T04:14:24.405Z,80.87
2022-11-02T04:17:11.035Z,81.15
2022-11-02T04:19:37.785Z,81.84
2022-11-02T04:22:14.405Z,81.36
2022-11-02T04:24:50.332Z,81.30
2022-11-02T04:27:20.949Z,80.72
2022-11-02T04:29:48.483Z,81.44
2022-11-02T04:32:15.359Z,81.78
2022-11-02T04:34:42.114Z,80.93
2022-11-02T04:37:28.787Z,80.92
2022-11-02T04:39:55.529Z,81.47
2022-11-02T04:42:22.244Z,81.22
2022-11-02T04:44:48.984Z,80.20
2022-11-02T04:47:15.755Z,79.91
2022-11-02T04:49:42.604Z,80.35
2022-11-02T04:52:10.182Z,80.72
2022-11-02T04:54:36.969Z,81.13
2022-11-02T04:57:03.774Z,80.49
2022-11-02T04:59:30.582Z,80.80
2022-11-02T05:01:57.666Z,80.72
2022-11-02T05:04:24.514Z,80.40
2022-11-02T05:06:51.319Z,80.38
2022-11-02T05:09:18.319Z,80.38
2022-11-02T05:11:45.149Z,80.11
2022-11-02T05:14:11.857Z,80.11
2022-11-02T05:16:38.584Z,80.25
2022-11-02T05:19:08.365Z,80.16
2022-11-02T05:21:37.844Z,81.12
2022-11-02T05:24:04.980Z,80.29
2022-11-02T05:26:31.943Z,79.67
2022-11-02T05:28:58.705Z,79.95
2022-11-02T05:31:25.565Z,78.88
2022-11-02T05:33:52.460Z,79.14
2022-11-02T05:36:19.222Z,79.16
2022-11-02T05:38:47.060Z,80.11
2022-11-02T05:41:13.868Z,81.09
2022-11-02T05:43:40.691Z,79.25
2022-11-02T05:46:07.446Z,79.33
2022-11-02T05:48:34.258Z,79.38
2022-11-02T05:51:02.115Z,79.71
2022-11-02T05:53:33.060Z,78.74
2022-11-02T05:56:00.750Z,79.14
2022-11-02T05:58:28.024Z,78.35
2022-11-02T06:00:55.044Z,79.19
2022-11-02T06:03:21.850Z,79.62
2022-11-02T06:05:48.673Z,78.10
2022-11-02T06:08:15.515Z,78.06
2022-11-02T06:10:43.699Z,79.13
2022-11-02T06:13:10.432Z,79.31
2022-11-02T06:15:37.230Z,79.37
2022-11-02T06:18:04.100Z,78.98
2022-11-02T06:20:30.800Z,78.73
2022-11-02T06:22:57.679Z,78.93
2022-11-02T06:25:24.509Z,78.65
2022-11-02T06:27:53.259Z,79.39
2022-11-02T06:30:20.052Z,78.84
2022-11-02T06:32:48.709Z,80.03
2022-11-02T06:35:16.309Z,80.17
2022-11-02T06:37:43.054Z,77.55
2022-11-02T06:40:11.074Z,77.02
2022-11-02T06:42:44.926Z,78.22
2022-11-02T06:45:12.145Z,78.51
2022-11-02T06:47:38.999Z,78.36
2022-11-02T06:50:06.832Z,78.71
2022-11-02T06:52:35.479Z,78.42
2022-11-02T06:55:02.269Z,77.97
2022-11-02T06:57:29.035Z,78.28
2022-11-02T06:59:55.828Z,78.20
2022-11-02T07:02:22.701Z,77.93
2022-11-02T07:04:49.987Z,77.03
2022-11-02T07:07:16.911Z,77.53
2022-11-02T07:09:43.664Z,78.56
2022-11-02T07:12:10.515Z,79.14
2022-11-02T07:14:37.334Z,78.20
2022-11-02T07:17:04.205Z,78.87
2022-11-02T07:19:30.994Z,79.28
2022-11-02T07:21:57.794Z,79.89
2022-11-02T07:24:24.754Z,78.53
2022-11-02T07:26:52.904Z,77.67
2022-11-02T07:29:20.129Z,77.76
2022-11-02T07:31:47.105Z,77.75
2022-11-02T07:34:17.159Z,78.18
2022-11-02T07:36:44.474Z,78.71
2022-11-02T07:39:11.424Z,78.04
2022-11-02T07:41:38.237Z,78.35
2022-11-02T07:44:05.399Z,78.61
2022-11-02T07:46:32.504Z,79.36
2022-11-02T07:48:59.425Z,78.87
2022-11-02T07:51:26.770Z,82.36
2022-11-02T07:53:54.130Z,85.61
2022-11-02T07:56:21.255Z,82.27
2022-11-02T07:58:48.375Z,79.09
2022-11-02T08:01:15.420Z,77.24
2022-11-02T08:03:42.554Z,77.76
2022-11-02T08:06:10.272Z,77.64
2022-11-02T08:08:37.329Z,78.51
2022-11-02T08:11:06.297Z,78.90
2022-11-02T08:13:33.586Z,78.86
2022-11-02T08:16:00.950Z,78.77
2022-11-02T08:18:29.182Z,78.87
2022-11-02T08:20:57.350Z,79.82
2022-11-02T08:23:25.185Z,80.16
2022-11-02T08:25:52.988Z,80.09
2022-11-02T08:28:22.290Z,79.89
2022-11-02T08:30:49.509Z,79.75
2022-11-02T08:33:17.256Z,78.80
2022-11-02T08:35:45.096Z,79.71
2022-11-02T08:38:12.356Z,79.61
2022-11-02T08:40:41.422Z,79.96
2022-11-02T08:43:10.119Z,81.89
2022-11-02T08:46:12.500Z,80.09
2022-11-02T08:48:26.708Z,79.05
2022-11-02T08:50:54.059Z,80.54
2022-11-02T08:53:21.415Z,80.08
2022-11-02T08:55:48.674Z,79.97
2022-11-02T08:58:16.141Z,78.86
2022-11-02T09:00:43.431Z,78.96
2022-11-02T09:03:12.459Z,79.45
2022-11-02T09:05:40.953Z,80.05
2022-11-02T09:08:10.685Z,80.38
2022-11-02T09:10:38.551Z,78.95
2022-11-02T09:13:07.132Z,78.65
2022-11-02T09:15:36.400Z,78.46
2022-11-02T09:18:04.007Z,78.65
2022-11-02T09:20:31.421Z,77.72
2022-11-02T09:22:58.540Z,77.62
2022-11-02T09:25:25.828Z,77.18
2022-11-02T09:27:55.764Z,77.28
2022-11-02T09:30:23.970Z,77.09
2022-11-02T09:32:55.908Z,77.29
2022-11-02T09:35:23.466Z,77.39
2022-11-02T09:37:51.258Z,77.44
2022-11-02T09:40:21.788Z,77.31
2022-11-02T09:42:57.281Z,76.68
2022-11-02T09:45:24.934Z,76.21
2022-11-02T09:50:47.163Z,76.36
2022-11-02T09:53:19.901Z,75.26
2022-11-02T09:55:52.812Z,75.55
2022-11-02T09:58:24.331Z,75.81
2022-11-02T10:00:53.667Z,76.26
2022-11-02T10:03:29.178Z,75.29
2022-11-02T10:05:59.871Z,73.99
2022-11-02T10:08:37.046Z,74.87
2022-11-02T10:11:14.315Z,75.55
2022-11-02T10:13:46.374Z,73.95
2022-11-02T10:16:18.535Z,74.69
2022-11-02T10:18:50.139Z,73.69
2022-11-02T10:21:20.863Z,74.94
2022-11-02T10:23:57.896Z,74.30
2022-11-02T10:26:28.059Z,73.82
2022-11-02T10:28:59.873Z,74.51
2022-11-02T10:31:30.931Z,74.17
2022-11-02T10:34:00.305Z,73.80
2022-11-02T10:36:33.520Z,73.98
2022-11-02T10:39:03.746Z,75.16
2022-11-02T10:41:38.876Z,74.65
2022-11-02T10:44:07.256Z,74.69
2022-11-02T10:46:43.667Z,74.90
2022-11-02T10:49:10.808Z,74.43
2022-11-02T10:51:38.061Z,74.44
2022-11-02T10:54:11.827Z,74.07
2022-11-02T10:56:39.590Z,75.19
2022-11-02T10:59:13.559Z,75.58
2022-11-02T11:01:46.703Z,76.05
2022-11-02T11:04:22.373Z,75.10
2022-11-02T11:06:49.571Z,75.51
2022-11-02T11:09:17.111Z,75.75
2022-11-02T11:11:53.899Z,76.44
2022-11-02T11:20:08.227Z,74.51
2022-11-02T11:22:38.003Z,74.88
2022-11-02T11:25:15.017Z,74.98
2022-11-02T11:27:46.384Z,73.76
2022-11-02T11:30:46.199Z,73.90
2022-11-02T11:33:16.538Z,74.03
2022-11-02T11:35:48.455Z,73.10
2022-11-02T11:38:17.987Z,73.28
2022-11-02T11:40:47.500Z,72.37
2022-11-02T11:43:16.627Z,72.52
2022-11-02T11:45:52.860Z,72.95
2022-11-02T11:48:30.125Z,72.98
2022-11-02T11:50:57.891Z,74.68
2022-11-02T11:53:26.733Z,74.14
2022-11-02T11:55:55.797Z,74.48
2022-11-02T11:58:23.276Z,75.25
2022-11-02T12:00:59.956Z,75.53
2022-11-02T12:03:27.185Z,76.06
2022-11-02T12:06:03.283Z,75.52
2022-11-02T12:08:33.757Z,74.67
2022-11-02T12:11:06.558Z,74.02
2022-11-02T12:13:43.854Z,74.55
2022-11-02T12:16:20.563Z,73.89
2022-11-02T12:18:57.296Z,74.57
2022-11-02T12:21:33.327Z,73.93
2022-11-02T12:24:07.607Z,72.73
2022-11-02T12:26:42.489Z,73.18
2022-11-02T12:29:22.079Z,72.68
2022-11-02T12:32:05.360Z,73.40
2022-11-02T12:34:33.997Z,73.74
2022-11-02T12:39:49.609Z,73.03
2022-11-02T12:42:18.161Z,73.07
2022-11-02T12:44:53.344Z,72.46
2022-11-02T12:47:30.214Z,71.18
2022-11-02T12:50:02.021Z,70.81
2022-11-02T12:52:36.284Z,72.30
2022-11-02T12:55:06.243Z,71.43
2022-11-02T12:57:37.771Z,70.74
2022-11-02T13:00:07.857Z,70.44
2022-11-02T13:02:38.559Z,70.47
2022-11-02T13:05:12.958Z,69.95
2022-11-02T13:07:43.781Z,69.56
2022-11-02T13:10:17.807Z,67.32
2022-11-02T13:12:46.260Z,67.79
2022-11-02T13:15:16.887Z,68.80
2022-11-02T13:17:54.048Z,68.57
2022-11-02T13:20:31.773Z,68.23
2022-11-02T13:23:04.176Z,67.80
2022-11-02T13:25:35.133Z,68.85
2022-11-02T13:28:06.238Z,69.93
2022-11-02T13:30:34.714Z,69.15
2022-11-02T13:33:05.408Z,68.26
2022-11-02T13:35:34.065Z,69.28
2022-11-02T13:38:06.192Z,68.93
2022-11-02T13:40:39.677Z,69.11
2022-11-02T13:43:07.709Z,69.44
2022-11-02T13:45:38.684Z,70.30
2022-11-02T13:48:09.223Z,71.63
2022-11-02T13:50:40.246Z,72.18
2022-11-02T13:53:09.511Z,74.02
2022-11-02T13:55:45.566Z,73.88
2022-11-02T13:58:22.066Z,74.24
2022-11-02T14:00:49.413Z,74.38
2022-11-02T14:03:17.131Z,74.27
2022-11-02T14:05:56.467Z,75.38
2022-11-02T14:08:26.875Z,74.97
2022-11-02T14:11:03.664Z,74.38
2022-11-02T14:13:41.325Z,75.19
2022-11-02T14:16:08.942Z,74.31
2022-11-02T14:18:36.413Z,74.97
2022-11-02T14:21:23.684Z,74.46
2022-11-02T14:23:51.126Z,74.28
2022-11-02T14:26:28.445Z,74.77
2022-11-02T14:28:55.916Z,74.92
2022-11-02T14:31:32.723Z,75.09
2022-11-02T14:34:01.207Z,75.25
2022-11-02T14:36:38.255Z,74.41
2022-11-02T14:39:15.120Z,73.41
2022-11-02T14:41:52.162Z,74.46
2022-11-02T14:44:29.576Z,73.79
2022-11-02T14:47:02.008Z,75.04
2022-11-02T14:49:31.418Z,74.13
2022-11-02T14:52:04.300Z,73.94
2022-11-02T14:54:34.414Z,73.73
2022-11-02T14:57:06.399Z,73.06
2022-11-02T14:59:36.233Z,73.72
2022-11-02T15:02:08.483Z,73.76
2022-11-02T15:04:36.621Z,73.98
2022-11-02T15:07:07.490Z,74.27
2022-11-02T15:09:44.773Z,74.96
2022-11-02T15:12:23.359Z,75.04
2022-11-02T15:14:55.782Z,74.62
2022-11-02T15:17:25.442Z,72.46
2022-11-02T15:19:54.722Z,72.01
2022-11-02T15:22:31.840Z,72.99
2022-11-02T15:25:01.170Z,72.26
2022-11-02T15:27:29.844Z,71.26
2022-11-02T15:29:57.428Z,71.29
2022-11-02T15:32:27.775Z,71.17
2022-11-02T15:34:58.899Z,71.40
2022-11-02T15:37:29.763Z,71.09
2022-11-02T15:39:59.384Z,71.49
2022-11-02T15:42:36.348Z,72.11
2022-11-02T15:45:20.077Z,71.43
2022-11-02T15:48:04.475Z,72.43
2022-11-02T15:50:41.613Z,72.30
2022-11-02T15:53:22.834Z,70.52
2022-11-02T15:56:03.542Z,72.25
2022-11-02T15:58:34.590Z,71.87
2022-11-02T16:01:07.625Z,70.80
2022-11-02T16:03:35.799Z,71.52
2022-11-02T16:06:05.953Z,71.80
2022-11-02T16:08:35.054Z,72.03
2022-11-02T16:11:04.688Z,71.47
2022-11-02T16:13:49.103Z,71.97
2022-11-02T16:16:24.170Z,72.11
2022-11-02T16:18:54.002Z,73.19
2022-11-02T16:21:22.710Z,71.98
2022-11-02T16:23:51.858Z,73.01
2022-11-02T16:26:24.912Z,73.08
2022-11-02T16:28:54.760Z,73.80
2022-11-02T16:31:28.109Z,73.79
2022-11-02T16:33:57.350Z,74.20
2022-11-02T16:36:27.741Z,74.20
2022-11-02T16:38:58.913Z,73.99
2022-11-02T16:41:30.868Z,74.11
2022-11-02T16:44:01.100Z,74.89
2022-11-02T16:46:40.983Z,75.50
2022-11-02T16:49:13.958Z,74.47
2022-11-02T16:51:41.744Z,75.75
2022-11-02T16:54:18.696Z,75.65
2022-11-02T16:56:49.546Z,75.11
2022-11-02T16:59:17.649Z,75.62
2022-11-02T17:01:45.897Z,75.59
2022-11-02T17:04:15.850Z,75.81
2022-11-02T17:06:43.698Z,75.31
2022-11-02T17:09:21.297Z,75.13
2022-11-02T17:11:49.788Z,75.33
2022-11-02T17:14:19.305Z,75.58
2022-11-02T17:16:59.714Z,75.58
2022-11-02T17:19:45.746Z,75.92
2022-11-02T17:22:18.519Z,75.83
2022-11-02T17:24:47.362Z,75.25
2022-11-02T17:27:18.970Z,75.39
2022-11-02T17:29:48.864Z,75.42
2022-11-02T17:32:18.675Z,75.41
2022-11-02T17:34:55.860Z,75.04
2022-11-02T17:37:24.689Z,75.41
2022-11-02T17:39:53.246Z,75.57
2022-11-02T17:42:31.475Z,75.78
2022-11-02T17:44:59.583Z,75.22
2022-11-02T17:47:27.554Z,75.53
2022-11-02T17:49:55.988Z,75.59
2022-11-02T17:52:24.193Z,75.53
2022-11-02T17:54:53.411Z,75.76
2022-11-02T17:57:25.399Z,76.04
2022-11-02T17:59:54.403Z,76.04
2022-11-02T18:02:23.598Z,76.33
2022-11-02T18:04:52.011Z,75.93
2022-11-02T18:07:20.222Z,76.67
2022-11-02T18:09:48.266Z,76.87
2022-11-02T18:12:16.610Z,76.76
2022-11-02T18:14:44.777Z,76.97
2022-11-02T18:17:12.852Z,76.89
2022-11-02T18:19:40.922Z,76.88
2022-11-02T18:22:10.684Z,76.72
2022-11-02T18:24:38.895Z,77.28
2022-11-02T18:27:07.158Z,77.08
2022-11-02T18:29:34.910Z,77.71
2022-11-02T18:32:02.516Z,78.20
2022-11-02T18:34:30.338Z,78.87
2022-11-02T18:36:58.029Z,79.23
2022-11-02T18:39:25.811Z,80.13
2022-11-02T18:41:54.734Z,81.96
2022-11-02T18:44:22.324Z,83.98
2022-11-02T18:46:50.174Z,85.48
2022-11-02T18:49:18.916Z,85.96
2022-11-02T18:51:46.911Z,86.74
2022-11-02T18:54:17.152Z,87.08
2022-11-02T18:56:45.561Z,87.35
2022-11-02T18:59:16.467Z,87.48
2022-11-02T19:01:45.350Z,88.06
2022-11-02T19:04:17.392Z,88.50
2022-11-02T19:06:54.955Z,88.19
2022-11-02T19:09:23.931Z,88.52
2022-11-02T19:11:57.639Z,88.79
2022-11-02T19:14:25.530Z,88.60
2022-11-02T19:16:53.200Z,88.66
2022-11-02T19:19:20.774Z,89.06
2022-11-02T19:21:49.375Z,89.48
2022-11-02T19:24:16.969Z,89.78
2022-11-02T19:26:44.409Z,90.10
2022-11-02T19:29:12.160Z,89.99
2022-11-02T19:31:40.020Z,90.11
2022-11-02T19:34:07.593Z,90.14
2022-11-02T19:36:35.036Z,90.91
2022-11-02T19:39:03.947Z,91.69
2022-11-02T19:41:32.013Z,92.15
2022-11-02T19:43:59.491Z,92.58
2022-11-02T19:46:27.972Z,93.10
2022-11-02T19:48:58.620Z,93.24
2022-11-02T19:51:27.303Z,93.68
2022-11-02T19:53:56.063Z,94.06
2022-11-02T19:56:23.914Z,94.09
2022-11-02T19:58:52.093Z,94.74
2022-11-02T20:01:21.356Z,94.61
2022-11-02T20:03:49.630Z,94.75
2022-11-02T20:06:19.287Z,94.86
2022-11-02T20:08:49.839Z,95.00
2022-11-02T20:11:17.288Z,95.49
2022-11-02T20:13:46.023Z,95.12
2022-11-02T20:16:15.064Z,94.83
2022-11-02T20:18:43.675Z,94.55
2022-11-02T20:21:12.729Z,94.59
2022-11-02T20:23:40.526Z,94.68
2022-11-02T20:26:09.126Z,94.18
2022-11-02T20:28:40.720Z,94.08
2022-11-02T20:31:08.972Z,94.37
2022-11-02T20:33:36.718Z,94.64
2022-11-02T20:36:03.959Z,94.52
2022-11-02T20:38:31.438Z,94.20
2022-11-02T20:41:08.383Z,94.23
2022-11-02T20:43:37.217Z,94.23
2022-11-02T20:46:31.508Z,94.01
2022-11-02T20:48:53.687Z,93.63
2022-11-02T20:51:22.419Z,93.92
2022-11-02T20:53:50.171Z,93.99
2022-11-02T20:56:18.044Z,93.92
2022-11-02T20:58:50.011Z,93.62
2022-11-02T21:01:21.791Z,94.08
2022-11-02T21:03:49.070Z,93.43
2022-11-02T21:06:16.434Z,93.14
2022-11-02T21:08:44.219Z,92.98
2022-11-02T21:11:21.039Z,92.34
2022-11-02T21:13:57.980Z,92.54
2022-11-02T21:16:26.510Z,92.72
2022-11-02T21:18:54.050Z,92.82
2022-11-02T21:21:22.502Z,94.33
2022-11-02T21:23:50.934Z,94.69
2022-11-02T21:26:18.353Z,94.24
2022-11-02T21:28:46.843Z,93.40
2022-11-02T21:31:17.011Z,92.97
2022-11-02T21:33:44.978Z,93.58
2022-11-02T21:36:12.814Z,92.62
2022-11-02T21:38:40.094Z,92.72
2022-11-02T21:41:08.396Z,93.15
2022-11-02T21:43:37.338Z,94.03
2022-11-02T21:46:06.372Z,94.17
2022-11-02T21:48:35.055Z,95.35
2022-11-02T21:51:12.329Z,94.82
2022-11-02T21:53:41.218Z,94.56
2022-11-02T21:56:10.724Z,93.10
2022-11-02T21:58:42.951Z,91.72
2022-11-02T22:01:25.883Z,91.87
2022-11-02T22:03:53.490Z,91.71
2022-11-02T22:06:24.064Z,89.96
2022-11-02T22:08:54.429Z,91.01
2022-11-02T22:11:23.464Z,92.83
2022-11-02T22:13:51.701Z,94.64
2022-11-02T22:16:22.510Z,95.90
2022-11-02T22:18:49.861Z,96.77
2022-11-02T22:21:18.348Z,97.83
2022-11-02T22:23:46.210Z,97.76
2022-11-02T22:26:19.936Z,97.45
2022-11-02T22:28:47.667Z,97.36
2022-11-02T22:31:16.822Z,97.72
2022-11-02T22:33:44.642Z,98.54
2022-11-02T22:36:13.878Z,98.99
2022-11-02T22:38:44.618Z,98.76
2022-11-02T22:41:11.727Z,98.33
2022-11-02T22:43:38.738Z,97.31
2022-11-02T22:46:08.394Z,96.79
2022-11-02T22:48:36.260Z,96.42
2022-11-02T22:51:04.966Z,96.63
2022-11-02T22:53:32.280Z,97.41
2022-11-02T22:56:02.684Z,98.03
2022-11-02T22:58:30.636Z,98.16
2022-11-02T23:00:57.963Z,97.88
2022-11-02T23:03:25.521Z,97.76
2022-11-02T23:05:52.444Z,98.48
2022-11-02T23:08:19.508Z,99.01
2022-11-02T23:10:52.003Z,99.00
2022-11-02T23:13:23.673Z,99.49
2022-11-02T23:15:50.939Z,99.23
2022-11-02T23:18:17.985Z,98.71
2022-11-02T23:20:48.035Z,98.25
2022-11-02T23:23:19.049Z,98.77
2022-11-02T23:25:54.012Z,99.50
2022-11-02T23:30:59.526Z,98.63
2022-11-02T23:33:29.641Z,98.90
2022-11-02T23:35:59.948Z,98.77
2022-11-02T23:38:30.008Z,98.32
2022-11-02T23:40:56.930Z,98.14
2022-11-02T23:43:23.738Z,98.31
2022-11-02T23:45:50.579Z,97.18
2022-11-02T23:48:17.480Z,96.53
2022-11-02T23:50:47.483Z,96.41
2022-11-02T23:53:18.495Z,96.20
2022-11-02T23:55:48.459Z,96.25
2022-11-02T23:58:15.343Z,96.15
